sensor_id;sensor_type;location;lat;lon;timestamp;temperature;humidity
9699;DHT22;10089;47.876;8.346;2022-08-19T00:00:26;15.70;99.90
9699;DHT22;10089;47.876;8.346;2022-08-19T00:02:53;15.80;99.90
9699;DHT22;10089;47.876;8.346;2022-08-19T00:05:20;15.80;99.90
9699;DHT22;10089;47.876;8.346;2022-08-19T00:07:46;15.80;99.90
9699;DHT22;10089;47.876;8.346;2022-08-19T00:10:13;15.70;99.90
9699;DHT22;10089;47.876;8.346;2022-08-19T00:12:39;15.70;99.90
9699;DHT22;10089;47.876;8.346;2022-08-19T00:15:08;15.70;99.90
9699;DHT22;10089;47.876;8.346;2022-08-19T00:17:38;15.70;99.90
9699;DHT22;10089;47.876;8.346;2022-08-19T00:20:04;15.80;99.90
9699;DHT22;10089;47.876;8.346;2022-08-19T00:22:30;15.70;99.90
9699;DHT22;10089;47.876;8.346;2022-08-19T00:24:56;15.70;99.90
9699;DHT22;10089;47.876;8.346;2022-08-19T00:27:22;15.70;99.90
9699;DHT22;10089;47.876;8.346;2022-08-19T00:29:48;15.70;99.90
9699;DHT22;10089;47.876;8.346;2022-08-19T00:32:13;15.80;99.90
9699;DHT22;10089;47.876;8.346;2022-08-19T00:34:39;15.70;99.90
9699;DHT22;10089;47.876;8.346;2022-08-19T00:37:05;15.70;99.90
9699;DHT22;10089;47.876;8.346;2022-08-19T00:39:30;15.80;99.90
9699;DHT22;10089;47.876;8.346;2022-08-19T00:41:56;15.80;99.90
9699;DHT22;10089;47.876;8.346;2022-08-19T00:44:26;15.80;99.90
9699;DHT22;10089;47.876;8.346;2022-08-19T00:46:54;15.70;99.90
9699;DHT22;10089;47.876;8.346;2022-08-19T00:51:55;15.80;99.90
9699;DHT22;10089;47.876;8.346;2022-08-19T00:54:22;15.80;99.90
9699;DHT22;10089;47.876;8.346;2022-08-19T00:56:49;15.70;99.90
9699;DHT22;10089;47.876;8.346;2022-08-19T00:59:16;15.80;99.90
9699;DHT22;10089;47.876;8.346;2022-08-19T01:01:44;15.80;99.90
9699;DHT22;10089;47.876;8.346;2022-08-19T01:04:11;15.80;99.90
9699;DHT22;10089;47.876;8.346;2022-08-19T01:06:38;15.80;99.90
9699;DHT22;10089;47.876;8.346;2022-08-19T01:09:05;15.80;99.90
9699;DHT22;10089;47.876;8.346;2022-08-19T01:11:34;15.80;99.90
9699;DHT22;10089;47.876;8.346;2022-08-19T01:14:00;15.80;99.90
9699;DHT22;10089;47.876;8.346;2022-08-19T01:16:27;15.80;99.90
9699;DHT22;10089;47.876;8.346;2022-08-19T01:18:55;15.80;99.90
9699;DHT22;10089;47.876;8.346;2022-08-19T01:24:15;15.80;99.90
9699;DHT22;10089;47.876;8.346;2022-08-19T01:26:43;15.70;99.90
9699;DHT22;10089;47.876;8.346;2022-08-19T01:29:10;15.80;99.90
9699;DHT22;10089;47.876;8.346;2022-08-19T01:31:36;15.80;99.90
9699;DHT22;10089;47.876;8.346;2022-08-19T01:34:03;15.80;99.90
9699;DHT22;10089;47.876;8.346;2022-08-19T01:36:42;15.70;99.90
9699;DHT22;10089;47.876;8.346;2022-08-19T01:39:16;15.70;99.90
9699;DHT22;10089;47.876;8.346;2022-08-19T01:41:42;15.70;99.90
9699;DHT22;10089;47.876;8.346;2022-08-19T01:44:09;15.70;99.90
9699;DHT22;10089;47.876;8.346;2022-08-19T01:46:35;15.70;99.90
9699;DHT22;10089;47.876;8.346;2022-08-19T01:49:02;15.70;99.90
9699;DHT22;10089;47.876;8.346;2022-08-19T01:51:28;15.70;99.90
9699;DHT22;10089;47.876;8.346;2022-08-19T01:53:54;15.70;99.90
9699;DHT22;10089;47.876;8.346;2022-08-19T01:56:20;15.70;99.90
9699;DHT22;10089;47.876;8.346;2022-08-19T01:58:55;15.60;99.90
9699;DHT22;10089;47.876;8.346;2022-08-19T02:01:23;15.60;99.90
9699;DHT22;10089;47.876;8.346;2022-08-19T02:03:49;15.60;99.90
9699;DHT22;10089;47.876;8.346;2022-08-19T02:06:15;15.60;99.90
9699;DHT22;10089;47.876;8.346;2022-08-19T02:08:42;15.60;99.90
9699;DHT22;10089;47.876;8.346;2022-08-19T02:11:19;15.70;99.90
9699;DHT22;10089;47.876;8.346;2022-08-19T02:13:45;15.70;99.90
9699;DHT22;10089;47.876;8.346;2022-08-19T02:16:11;15.70;99.90
9699;DHT22;10089;47.876;8.346;2022-08-19T02:18:37;15.70;99.90
9699;DHT22;10089;47.876;8.346;2022-08-19T02:21:02;15.70;99.90
9699;DHT22;10089;47.876;8.346;2022-08-19T02:23:28;15.70;99.90
9699;DHT22;10089;47.876;8.346;2022-08-19T02:25:54;15.70;99.90
9699;DHT22;10089;47.876;8.346;2022-08-19T02:28:19;15.70;99.90
9699;DHT22;10089;47.876;8.346;2022-08-19T02:30:46;15.60;99.90
9699;DHT22;10089;47.876;8.346;2022-08-19T02:33:12;15.70;99.90
9699;DHT22;10089;47.876;8.346;2022-08-19T02:35:42;15.60;99.90
9699;DHT22;10089;47.876;8.346;2022-08-19T02:38:08;15.70;99.90
9699;DHT22;10089;47.876;8.346;2022-08-19T02:41:02;15.70;99.90
9699;DHT22;10089;47.876;8.346;2022-08-19T02:43:30;15.70;99.90
9699;DHT22;10089;47.876;8.346;2022-08-19T02:45:56;15.70;99.90
9699;DHT22;10089;47.876;8.346;2022-08-19T02:48:24;15.70;99.90
9699;DHT22;10089;47.876;8.346;2022-08-19T02:50:52;15.70;99.90
9699;DHT22;10089;47.876;8.346;2022-08-19T02:53:24;15.70;99.90
9699;DHT22;10089;47.876;8.346;2022-08-19T02:55:51;15.80;99.90
9699;DHT22;10089;47.876;8.346;2022-08-19T02:58:18;15.70;99.90
9699;DHT22;10089;47.876;8.346;2022-08-19T03:00:46;15.70;99.90
9699;DHT22;10089;47.876;8.346;2022-08-19T03:03:14;15.70;99.90
9699;DHT22;10089;47.876;8.346;2022-08-19T03:05:40;15.70;99.90
9699;DHT22;10089;47.876;8.346;2022-08-19T03:08:07;15.70;99.90
9699;DHT22;10089;47.876;8.346;2022-08-19T03:10:40;15.70;99.90
9699;DHT22;10089;47.876;8.346;2022-08-19T03:13:10;15.70;99.90
9699;DHT22;10089;47.876;8.346;2022-08-19T03:15:40;15.70;99.90
9699;DHT22;10089;47.876;8.346;2022-08-19T03:18:06;15.70;99.90
9699;DHT22;10089;47.876;8.346;2022-08-19T03:20:31;15.70;99.90
9699;DHT22;10089;47.876;8.346;2022-08-19T03:22:58;15.80;99.90
9699;DHT22;10089;47.876;8.346;2022-08-19T03:25:24;15.80;99.90
9699;DHT22;10089;47.876;8.346;2022-08-19T03:27:50;15.70;99.90
9699;DHT22;10089;47.876;8.346;2022-08-19T03:30:15;15.60;99.90
9699;DHT22;10089;47.876;8.346;2022-08-19T03:32:41;15.60;99.90
9699;DHT22;10089;47.876;8.346;2022-08-19T03:35:07;15.60;99.90
9699;DHT22;10089;47.876;8.346;2022-08-19T03:37:33;15.60;99.90
9699;DHT22;10089;47.876;8.346;2022-08-19T03:39:58;15.60;99.90
9699;DHT22;10089;47.876;8.346;2022-08-19T03:42:24;15.60;99.90
9699;DHT22;10089;47.876;8.346;2022-08-19T03:44:52;15.60;99.90
9699;DHT22;10089;47.876;8.346;2022-08-19T03:47:18;15.60;99.90
9699;DHT22;10089;47.876;8.346;2022-08-19T03:49:44;15.60;99.90
9699;DHT22;10089;47.876;8.346;2022-08-19T03:52:10;15.60;99.90
9699;DHT22;10089;47.876;8.346;2022-08-19T03:54:36;15.60;99.90
9699;DHT22;10089;47.876;8.346;2022-08-19T03:57:05;15.60;99.90
9699;DHT22;10089;47.876;8.346;2022-08-19T03:59:34;15.60;99.90
9699;DHT22;10089;47.876;8.346;2022-08-19T04:02:03;15.60;99.90
9699;DHT22;10089;47.876;8.346;2022-08-19T04:04:32;15.50;99.90
9699;DHT22;10089;47.876;8.346;2022-08-19T04:06:58;15.50;99.90
9699;DHT22;10089;47.876;8.346;2022-08-19T04:09:24;15.50;99.90
9699;DHT22;10089;47.876;8.346;2022-08-19T04:11:52;15.50;99.90
9699;DHT22;10089;47.876;8.346;2022-08-19T04:14:24;15.50;99.90
9699;DHT22;10089;47.876;8.346;2022-08-19T04:16:51;15.50;99.90
9699;DHT22;10089;47.876;8.346;2022-08-19T04:19:18;15.50;99.90
9699;DHT22;10089;47.876;8.346;2022-08-19T04:21:46;15.50;99.90
9699;DHT22;10089;47.876;8.346;2022-08-19T04:24:12;15.50;99.90
9699;DHT22;10089;47.876;8.346;2022-08-19T04:26:39;15.50;99.90
9699;DHT22;10089;47.876;8.346;2022-08-19T04:29:07;15.50;99.90
9699;DHT22;10089;47.876;8.346;2022-08-19T04:31:33;15.50;99.90
9699;DHT22;10089;47.876;8.346;2022-08-19T04:34:02;15.50;99.90
9699;DHT22;10089;47.876;8.346;2022-08-19T04:36:32;15.50;99.90
9699;DHT22;10089;47.876;8.346;2022-08-19T04:39:20;15.50;99.90
9699;DHT22;10089;47.876;8.346;2022-08-19T04:41:46;15.50;99.90
9699;DHT22;10089;47.876;8.346;2022-08-19T04:44:32;15.50;99.90
9699;DHT22;10089;47.876;8.346;2022-08-19T04:46:58;15.50;99.90
9699;DHT22;10089;47.876;8.346;2022-08-19T04:49:24;15.50;99.90
9699;DHT22;10089;47.876;8.346;2022-08-19T04:51:51;15.50;99.90
9699;DHT22;10089;47.876;8.346;2022-08-19T04:54:21;15.50;99.90
9699;DHT22;10089;47.876;8.346;2022-08-19T04:56:49;15.60;99.90
9699;DHT22;10089;47.876;8.346;2022-08-19T04:59:16;15.60;99.90
9699;DHT22;10089;47.876;8.346;2022-08-19T05:01:42;15.60;99.90
9699;DHT22;10089;47.876;8.346;2022-08-19T05:04:08;15.60;99.90
9699;DHT22;10089;47.876;8.346;2022-08-19T05:06:35;15.60;99.90
9699;DHT22;10089;47.876;8.346;2022-08-19T05:09:04;15.60;99.90
9699;DHT22;10089;47.876;8.346;2022-08-19T05:11:34;15.60;99.90
9699;DHT22;10089;47.876;8.346;2022-08-19T05:14:04;15.60;99.90
9699;DHT22;10089;47.876;8.346;2022-08-19T05:16:30;15.60;99.90
9699;DHT22;10089;47.876;8.346;2022-08-19T05:18:56;15.60;99.90
9699;DHT22;10089;47.876;8.346;2022-08-19T05:21:41;15.60;99.90
9699;DHT22;10089;47.876;8.346;2022-08-19T05:24:26;15.60;99.90
9699;DHT22;10089;47.876;8.346;2022-08-19T05:26:54;15.70;99.90
9699;DHT22;10089;47.876;8.346;2022-08-19T05:29:24;15.60;99.90
9699;DHT22;10089;47.876;8.346;2022-08-19T05:31:50;15.60;99.90
9699;DHT22;10089;47.876;8.346;2022-08-19T05:34:18;15.60;99.90
9699;DHT22;10089;47.876;8.346;2022-08-19T05:36:44;15.60;99.90
9699;DHT22;10089;47.876;8.346;2022-08-19T05:39:14;15.70;99.90
9699;DHT22;10089;47.876;8.346;2022-08-19T05:41:54;15.70;99.90
9699;DHT22;10089;47.876;8.346;2022-08-19T05:44:26;15.70;99.90
9699;DHT22;10089;47.876;8.346;2022-08-19T05:46:52;15.60;99.90
9699;DHT22;10089;47.876;8.346;2022-08-19T05:49:21;15.70;99.90
9699;DHT22;10089;47.876;8.346;2022-08-19T05:51:47;15.60;99.90
9699;DHT22;10089;47.876;8.346;2022-08-19T05:54:13;15.60;99.90
9699;DHT22;10089;47.876;8.346;2022-08-19T05:56:40;15.70;99.90
9699;DHT22;10089;47.876;8.346;2022-08-19T05:59:08;15.70;99.90
9699;DHT22;10089;47.876;8.346;2022-08-19T06:01:37;15.70;99.90
9699;DHT22;10089;47.876;8.346;2022-08-19T06:04:03;15.70;99.90
9699;DHT22;10089;47.876;8.346;2022-08-19T06:06:29;15.70;99.90
9699;DHT22;10089;47.876;8.346;2022-08-19T06:08:55;15.80;99.90
9699;DHT22;10089;47.876;8.346;2022-08-19T06:11:25;15.80;99.90
9699;DHT22;10089;47.876;8.346;2022-08-19T06:14:01;15.80;99.90
9699;DHT22;10089;47.876;8.346;2022-08-19T06:16:28;15.80;99.90
9699;DHT22;10089;47.876;8.346;2022-08-19T06:18:57;15.80;99.90
9699;DHT22;10089;47.876;8.346;2022-08-19T06:21:27;15.80;99.90
9699;DHT22;10089;47.876;8.346;2022-08-19T06:23:53;15.80;99.90
9699;DHT22;10089;47.876;8.346;2022-08-19T06:26:21;15.90;99.90
9699;DHT22;10089;47.876;8.346;2022-08-19T06:28:48;15.90;99.90
9699;DHT22;10089;47.876;8.346;2022-08-19T06:31:15;15.90;99.90
9699;DHT22;10089;47.876;8.346;2022-08-19T06:33:42;16.00;99.90
9699;DHT22;10089;47.876;8.346;2022-08-19T06:36:26;16.00;99.90
9699;DHT22;10089;47.876;8.346;2022-08-19T06:39:11;16.00;99.90
9699;DHT22;10089;47.876;8.346;2022-08-19T06:41:40;16.10;99.90
9699;DHT22;10089;47.876;8.346;2022-08-19T06:44:07;16.10;99.90
9699;DHT22;10089;47.876;8.346;2022-08-19T06:46:33;16.10;99.90
9699;DHT22;10089;47.876;8.346;2022-08-19T06:48:59;16.30;99.90
9699;DHT22;10089;47.876;8.346;2022-08-19T06:51:26;16.30;99.90
9699;DHT22;10089;47.876;8.346;2022-08-19T06:53:53;16.30;99.90
9699;DHT22;10089;47.876;8.346;2022-08-19T06:56:26;16.40;99.90
9699;DHT22;10089;47.876;8.346;2022-08-19T06:58:57;16.50;99.90
9699;DHT22;10089;47.876;8.346;2022-08-19T07:01:23;16.60;99.90
9699;DHT22;10089;47.876;8.346;2022-08-19T07:03:49;16.70;99.90
9699;DHT22;10089;47.876;8.346;2022-08-19T07:06:16;16.70;99.90
9699;DHT22;10089;47.876;8.346;2022-08-19T07:08:47;16.70;99.90
9699;DHT22;10089;47.876;8.346;2022-08-19T07:11:15;16.70;99.90
9699;DHT22;10089;47.876;8.346;2022-08-19T07:13:41;16.70;99.90
9699;DHT22;10089;47.876;8.346;2022-08-19T07:16:12;16.70;99.90
9699;DHT22;10089;47.876;8.346;2022-08-19T07:18:38;16.80;99.90
9699;DHT22;10089;47.876;8.346;2022-08-19T07:21:09;16.80;99.90
9699;DHT22;10089;47.876;8.346;2022-08-19T07:23:36;16.80;99.90
9699;DHT22;10089;47.876;8.346;2022-08-19T07:26:14;16.90;99.90
9699;DHT22;10089;47.876;8.346;2022-08-19T07:28:42;17.00;99.90
9699;DHT22;10089;47.876;8.346;2022-08-19T07:31:14;17.10;99.90
9699;DHT22;10089;47.876;8.346;2022-08-19T07:33:41;17.10;99.90
9699;DHT22;10089;47.876;8.346;2022-08-19T07:36:09;17.10;99.90
9699;DHT22;10089;47.876;8.346;2022-08-19T07:38:38;17.20;99.90
9699;DHT22;10089;47.876;8.346;2022-08-19T07:41:05;17.10;99.90
9699;DHT22;10089;47.876;8.346;2022-08-19T07:43:31;17.10;99.90
9699;DHT22;10089;47.876;8.346;2022-08-19T07:45:57;17.20;99.90
9699;DHT22;10089;47.876;8.346;2022-08-19T07:48:25;17.20;99.90
9699;DHT22;10089;47.876;8.346;2022-08-19T07:50:59;17.20;99.90
9699;DHT22;10089;47.876;8.346;2022-08-19T07:53:28;17.20;99.90
9699;DHT22;10089;47.876;8.346;2022-08-19T07:55:54;17.30;99.90
9699;DHT22;10089;47.876;8.346;2022-08-19T07:58:21;17.20;99.90
9699;DHT22;10089;47.876;8.346;2022-08-19T08:00:49;17.20;99.90
9699;DHT22;10089;47.876;8.346;2022-08-19T08:03:17;17.10;99.90
9699;DHT22;10089;47.876;8.346;2022-08-19T08:05:45;17.10;99.90
9699;DHT22;10089;47.876;8.346;2022-08-19T08:08:30;17.10;99.90
9699;DHT22;10089;47.876;8.346;2022-08-19T08:11:18;17.10;99.90
9699;DHT22;10089;47.876;8.346;2022-08-19T08:13:44;17.10;99.90
9699;DHT22;10089;47.876;8.346;2022-08-19T08:16:10;17.10;99.90
9699;DHT22;10089;47.876;8.346;2022-08-19T08:18:36;17.10;99.90
9699;DHT22;10089;47.876;8.346;2022-08-19T08:21:07;17.10;99.90
9699;DHT22;10089;47.876;8.346;2022-08-19T08:23:33;17.10;99.90
9699;DHT22;10089;47.876;8.346;2022-08-19T08:25:59;17.10;99.90
9699;DHT22;10089;47.876;8.346;2022-08-19T08:28:26;17.00;99.90
9699;DHT22;10089;47.876;8.346;2022-08-19T08:30:52;16.90;99.90
9699;DHT22;10089;47.876;8.346;2022-08-19T08:33:22;16.80;99.90
9699;DHT22;10089;47.876;8.346;2022-08-19T08:35:48;16.80;99.90
9699;DHT22;10089;47.876;8.346;2022-08-19T08:38:14;16.70;99.90
9699;DHT22;10089;47.876;8.346;2022-08-19T08:40:48;16.70;99.90
9699;DHT22;10089;47.876;8.346;2022-08-19T08:43:23;16.70;99.90
9699;DHT22;10089;47.876;8.346;2022-08-19T08:48:52;16.70;99.90
9699;DHT22;10089;47.876;8.346;2022-08-19T08:54:11;16.60;99.90
9699;DHT22;10089;47.876;8.346;2022-08-19T08:56:44;16.60;99.90
9699;DHT22;10089;47.876;8.346;2022-08-19T09:01:46;16.50;99.90
9699;DHT22;10089;47.876;8.346;2022-08-19T09:04:12;16.50;99.90
9699;DHT22;10089;47.876;8.346;2022-08-19T09:15:13;16.50;99.90
9699;DHT22;10089;47.876;8.346;2022-08-19T09:17:40;16.50;99.90
9699;DHT22;10089;47.876;8.346;2022-08-19T09:22:39;16.40;99.90
9699;DHT22;10089;47.876;8.346;2022-08-19T09:25:08;16.50;99.90
9699;DHT22;10089;47.876;8.346;2022-08-19T09:27:35;16.50;99.90
9699;DHT22;10089;47.876;8.346;2022-08-19T09:30:03;16.50;99.90
9699;DHT22;10089;47.876;8.346;2022-08-19T09:32:30;16.50;99.90
9699;DHT22;10089;47.876;8.346;2022-08-19T09:34:56;16.50;99.90
9699;DHT22;10089;47.876;8.346;2022-08-19T09:37:24;16.50;99.90
9699;DHT22;10089;47.876;8.346;2022-08-19T09:39:50;16.50;99.90
9699;DHT22;10089;47.876;8.346;2022-08-19T09:42:16;16.50;99.90
9699;DHT22;10089;47.876;8.346;2022-08-19T09:44:43;16.50;99.90
9699;DHT22;10089;47.876;8.346;2022-08-19T09:47:10;16.50;99.90
9699;DHT22;10089;47.876;8.346;2022-08-19T09:49:37;16.50;99.90
9699;DHT22;10089;47.876;8.346;2022-08-19T09:52:05;16.50;99.90
9699;DHT22;10089;47.876;8.346;2022-08-19T09:54:31;16.50;99.90
9699;DHT22;10089;47.876;8.346;2022-08-19T09:57:01;16.50;99.90
9699;DHT22;10089;47.876;8.346;2022-08-19T09:59:27;16.50;99.90
9699;DHT22;10089;47.876;8.346;2022-08-19T10:01:53;16.50;99.90
9699;DHT22;10089;47.876;8.346;2022-08-19T10:04:19;16.50;99.90
9699;DHT22;10089;47.876;8.346;2022-08-19T10:06:48;16.50;99.90
9699;DHT22;10089;47.876;8.346;2022-08-19T10:09:16;16.60;99.90
9699;DHT22;10089;47.876;8.346;2022-08-19T10:11:44;16.60;99.90
9699;DHT22;10089;47.876;8.346;2022-08-19T10:14:15;16.60;99.90
9699;DHT22;10089;47.876;8.346;2022-08-19T10:16:42;16.70;99.90
9699;DHT22;10089;47.876;8.346;2022-08-19T10:19:08;16.70;99.90
9699;DHT22;10089;47.876;8.346;2022-08-19T10:21:35;16.70;99.90
9699;DHT22;10089;47.876;8.346;2022-08-19T10:24:03;16.70;99.90
9699;DHT22;10089;47.876;8.346;2022-08-19T10:26:33;16.70;99.90
9699;DHT22;10089;47.876;8.346;2022-08-19T10:29:00;16.70;99.90
9699;DHT22;10089;47.876;8.346;2022-08-19T10:31:31;16.80;99.90
9699;DHT22;10089;47.876;8.346;2022-08-19T10:33:57;16.90;99.90
9699;DHT22;10089;47.876;8.346;2022-08-19T10:36:29;16.90;99.90
9699;DHT22;10089;47.876;8.346;2022-08-19T10:38:58;16.90;99.90
9699;DHT22;10089;47.876;8.346;2022-08-19T10:41:30;16.90;99.90
9699;DHT22;10089;47.876;8.346;2022-08-19T10:43:59;16.90;99.90
9699;DHT22;10089;47.876;8.346;2022-08-19T10:46:27;16.90;99.90
9699;DHT22;10089;47.876;8.346;2022-08-19T10:48:54;17.00;99.90
9699;DHT22;10089;47.876;8.346;2022-08-19T10:51:20;17.10;99.90
9699;DHT22;10089;47.876;8.346;2022-08-19T10:54:05;17.10;99.90
9699;DHT22;10089;47.876;8.346;2022-08-19T10:56:32;17.20;99.90
9699;DHT22;10089;47.876;8.346;2022-08-19T10:59:22;17.20;99.90
9699;DHT22;10089;47.876;8.346;2022-08-19T11:01:48;17.20;99.90
9699;DHT22;10089;47.876;8.346;2022-08-19T11:04:14;17.20;99.90
9699;DHT22;10089;47.876;8.346;2022-08-19T11:06:44;17.20;99.90
9699;DHT22;10089;47.876;8.346;2022-08-19T11:09:11;17.20;99.90
9699;DHT22;10089;47.876;8.346;2022-08-19T11:11:38;17.20;99.90
9699;DHT22;10089;47.876;8.346;2022-08-19T11:14:08;17.20;99.90
9699;DHT22;10089;47.876;8.346;2022-08-19T11:16:35;17.30;99.90
9699;DHT22;10089;47.876;8.346;2022-08-19T11:19:03;17.30;99.90
9699;DHT22;10089;47.876;8.346;2022-08-19T11:21:32;17.30;99.90
9699;DHT22;10089;47.876;8.346;2022-08-19T11:24:05;17.40;99.90
9699;DHT22;10089;47.876;8.346;2022-08-19T11:26:32;17.40;99.90
9699;DHT22;10089;47.876;8.346;2022-08-19T11:28:59;17.40;99.90
9699;DHT22;10089;47.876;8.346;2022-08-19T11:31:28;17.50;99.90
9699;DHT22;10089;47.876;8.346;2022-08-19T11:33:56;17.50;99.90
9699;DHT22;10089;47.876;8.346;2022-08-19T11:36:22;17.50;99.90
9699;DHT22;10089;47.876;8.346;2022-08-19T11:38:48;17.70;99.90
9699;DHT22;10089;47.876;8.346;2022-08-19T11:41:16;17.60;99.90
9699;DHT22;10089;47.876;8.346;2022-08-19T11:43:43;17.60;99.90
9699;DHT22;10089;47.876;8.346;2022-08-19T11:46:11;17.70;99.90
9699;DHT22;10089;47.876;8.346;2022-08-19T11:48:38;17.80;99.90
9699;DHT22;10089;47.876;8.346;2022-08-19T11:51:13;17.90;99.90
9699;DHT22;10089;47.876;8.346;2022-08-19T11:53:40;18.00;99.90
9699;DHT22;10089;47.876;8.346;2022-08-19T11:56:06;18.10;99.90
9699;DHT22;10089;47.876;8.346;2022-08-19T11:58:33;18.10;99.90
9699;DHT22;10089;47.876;8.346;2022-08-19T12:00:59;18.10;99.90
9699;DHT22;10089;47.876;8.346;2022-08-19T12:03:25;18.20;99.90
9699;DHT22;10089;47.876;8.346;2022-08-19T12:05:51;18.20;99.90
9699;DHT22;10089;47.876;8.346;2022-08-19T12:08:18;18.20;99.90
9699;DHT22;10089;47.876;8.346;2022-08-19T12:10:44;18.20;99.90
9699;DHT22;10089;47.876;8.346;2022-08-19T12:13:11;18.20;99.90
9699;DHT22;10089;47.876;8.346;2022-08-19T12:15:41;18.20;99.90
9699;DHT22;10089;47.876;8.346;2022-08-19T12:18:08;18.30;99.90
9699;DHT22;10089;47.876;8.346;2022-08-19T12:20:38;18.40;99.90
9699;DHT22;10089;47.876;8.346;2022-08-19T12:23:06;18.40;99.90
9699;DHT22;10089;47.876;8.346;2022-08-19T12:25:32;18.40;99.90
9699;DHT22;10089;47.876;8.346;2022-08-19T12:27:58;18.50;99.90
9699;DHT22;10089;47.876;8.346;2022-08-19T12:30:25;18.50;99.90
9699;DHT22;10089;47.876;8.346;2022-08-19T12:32:51;18.60;99.90
9699;DHT22;10089;47.876;8.346;2022-08-19T12:35:17;18.70;99.90
9699;DHT22;10089;47.876;8.346;2022-08-19T12:37:46;18.60;99.90
9699;DHT22;10089;47.876;8.346;2022-08-19T12:40:12;18.60;99.90
9699;DHT22;10089;47.876;8.346;2022-08-19T12:42:39;18.60;99.90
9699;DHT22;10089;47.876;8.346;2022-08-19T12:45:12;18.60;99.90
9699;DHT22;10089;47.876;8.346;2022-08-19T12:47:39;18.70;99.90
9699;DHT22;10089;47.876;8.346;2022-08-19T12:50:06;18.70;99.90
9699;DHT22;10089;47.876;8.346;2022-08-19T12:52:35;18.60;99.90
9699;DHT22;10089;47.876;8.346;2022-08-19T12:55:07;18.80;99.90
9699;DHT22;10089;47.876;8.346;2022-08-19T12:57:33;18.80;99.90
9699;DHT22;10089;47.876;8.346;2022-08-19T13:00:05;18.90;99.90
9699;DHT22;10089;47.876;8.346;2022-08-19T13:02:36;19.00;99.90
9699;DHT22;10089;47.876;8.346;2022-08-19T13:05:03;19.10;99.90
9699;DHT22;10089;47.876;8.346;2022-08-19T13:07:31;19.10;99.90
9699;DHT22;10089;47.876;8.346;2022-08-19T13:09:57;19.10;99.90
9699;DHT22;10089;47.876;8.346;2022-08-19T13:12:23;19.10;99.90
9699;DHT22;10089;47.876;8.346;2022-08-19T13:14:52;19.10;99.90
9699;DHT22;10089;47.876;8.346;2022-08-19T13:17:20;19.20;99.90
9699;DHT22;10089;47.876;8.346;2022-08-19T13:19:46;19.10;99.90
9699;DHT22;10089;47.876;8.346;2022-08-19T13:22:11;19.40;99.90
9699;DHT22;10089;47.876;8.346;2022-08-19T13:24:38;19.10;99.90
9699;DHT22;10089;47.876;8.346;2022-08-19T13:27:04;19.00;99.90
9699;DHT22;10089;47.876;8.346;2022-08-19T13:29:30;18.90;99.90
9699;DHT22;10089;47.876;8.346;2022-08-19T13:32:14;18.90;99.90
9699;DHT22;10089;47.876;8.346;2022-08-19T13:34:58;19.00;99.90
9699;DHT22;10089;47.876;8.346;2022-08-19T13:37:24;18.90;99.90
9699;DHT22;10089;47.876;8.346;2022-08-19T13:40:13;18.90;99.90
9699;DHT22;10089;47.876;8.346;2022-08-19T13:42:46;19.00;99.90
9699;DHT22;10089;47.876;8.346;2022-08-19T13:45:13;18.80;99.90
9699;DHT22;10089;47.876;8.346;2022-08-19T13:47:40;18.90;99.90
9699;DHT22;10089;47.876;8.346;2022-08-19T13:50:14;18.90;99.90
9699;DHT22;10089;47.876;8.346;2022-08-19T13:52:40;19.00;99.90
9699;DHT22;10089;47.876;8.346;2022-08-19T13:55:07;19.00;99.90
9699;DHT22;10089;47.876;8.346;2022-08-19T13:57:33;18.90;99.90
9699;DHT22;10089;47.876;8.346;2022-08-19T14:00:00;19.10;99.90
9699;DHT22;10089;47.876;8.346;2022-08-19T14:02:26;19.20;99.90
9699;DHT22;10089;47.876;8.346;2022-08-19T14:04:52;19.30;99.90
9699;DHT22;10089;47.876;8.346;2022-08-19T14:07:18;19.40;99.90
9699;DHT22;10089;47.876;8.346;2022-08-19T14:09:44;19.40;99.90
9699;DHT22;10089;47.876;8.346;2022-08-19T14:12:10;19.30;99.90
9699;DHT22;10089;47.876;8.346;2022-08-19T14:14:39;17.80;99.90
9699;DHT22;10089;47.876;8.346;2022-08-19T14:17:08;19.50;99.90
9699;DHT22;10089;47.876;8.346;2022-08-19T14:19:35;19.40;99.90
9699;DHT22;10089;47.876;8.346;2022-08-19T14:22:02;19.50;99.90
9699;DHT22;10089;47.876;8.346;2022-08-19T14:24:28;19.60;99.90
9699;DHT22;10089;47.876;8.346;2022-08-19T14:26:54;19.70;99.90
9699;DHT22;10089;47.876;8.346;2022-08-19T14:29:19;19.70;99.90
9699;DHT22;10089;47.876;8.346;2022-08-19T14:31:45;19.70;99.90
9699;DHT22;10089;47.876;8.346;2022-08-19T14:34:11;19.80;99.90
9699;DHT22;10089;47.876;8.346;2022-08-19T14:36:38;19.90;99.90
9699;DHT22;10089;47.876;8.346;2022-08-19T14:39:04;19.90;99.90
9699;DHT22;10089;47.876;8.346;2022-08-19T14:41:30;20.00;99.90
9699;DHT22;10089;47.876;8.346;2022-08-19T14:43:57;20.00;99.90
9699;DHT22;10089;47.876;8.346;2022-08-19T14:46:25;20.10;99.90
9699;DHT22;10089;47.876;8.346;2022-08-19T14:48:53;20.20;99.90
9699;DHT22;10089;47.876;8.346;2022-08-19T14:51:21;20.30;99.90
9699;DHT22;10089;47.876;8.346;2022-08-19T14:53:47;20.30;99.90
9699;DHT22;10089;47.876;8.346;2022-08-19T14:56:17;20.40;99.90
9699;DHT22;10089;47.876;8.346;2022-08-19T14:58:44;20.50;99.90
9699;DHT22;10089;47.876;8.346;2022-08-19T15:01:11;20.70;99.90
9699;DHT22;10089;47.876;8.346;2022-08-19T15:03:37;20.60;99.90
9699;DHT22;10089;47.876;8.346;2022-08-19T15:06:05;20.50;99.90
9699;DHT22;10089;47.876;8.346;2022-08-19T15:08:32;20.60;99.90
9699;DHT22;10089;47.876;8.346;2022-08-19T15:11:00;20.60;99.90
9699;DHT22;10089;47.876;8.346;2022-08-19T15:13:28;20.50;99.90
9699;DHT22;10089;47.876;8.346;2022-08-19T15:15:56;20.50;99.90
9699;DHT22;10089;47.876;8.346;2022-08-19T15:18:22;20.50;99.90
9699;DHT22;10089;47.876;8.346;2022-08-19T15:20:49;20.50;99.90
9699;DHT22;10089;47.876;8.346;2022-08-19T15:23:16;20.50;99.90
9699;DHT22;10089;47.876;8.346;2022-08-19T15:25:43;20.40;99.90
9699;DHT22;10089;47.876;8.346;2022-08-19T15:28:09;20.30;99.90
9699;DHT22;10089;47.876;8.346;2022-08-19T15:30:39;20.30;99.90
9699;DHT22;10089;47.876;8.346;2022-08-19T15:33:06;20.30;99.90
9699;DHT22;10089;47.876;8.346;2022-08-19T15:35:32;20.30;99.90
9699;DHT22;10089;47.876;8.346;2022-08-19T15:37:58;20.20;99.90
9699;DHT22;10089;47.876;8.346;2022-08-19T15:40:25;20.30;99.90
9699;DHT22;10089;47.876;8.346;2022-08-19T15:42:51;20.30;99.90
9699;DHT22;10089;47.876;8.346;2022-08-19T15:45:19;20.30;99.90
9699;DHT22;10089;47.876;8.346;2022-08-19T15:47:44;20.20;99.90
9699;DHT22;10089;47.876;8.346;2022-08-19T15:50:18;20.20;99.90
9699;DHT22;10089;47.876;8.346;2022-08-19T15:52:51;20.10;99.90
9699;DHT22;10089;47.876;8.346;2022-08-19T15:55:24;20.00;99.90
9699;DHT22;10089;47.876;8.346;2022-08-19T15:57:50;19.90;99.90
9699;DHT22;10089;47.876;8.346;2022-08-19T16:00:35;19.80;99.90
9699;DHT22;10089;47.876;8.346;2022-08-19T16:03:19;19.70;99.90
9699;DHT22;10089;47.876;8.346;2022-08-19T16:06:04;19.60;99.90
9699;DHT22;10089;47.876;8.346;2022-08-19T16:08:48;19.40;99.90
9699;DHT22;10089;47.876;8.346;2022-08-19T16:11:17;19.20;99.90
9699;DHT22;10089;47.876;8.346;2022-08-19T16:13:48;18.90;99.90
9699;DHT22;10089;47.876;8.346;2022-08-19T16:16:17;18.80;99.90